This is the latest recevied weather packets stored in our database for station/object VA6NA. If no packets are shown the sender has not sent any weather packets the latest 10 day(s).
| Time | Temp. | Humidity | Pressure | Rain* | Wind** | Luminosity | Snow |
|---|---|---|---|---|---|---|---|
| 1777503929 | 17.78° C | 35% | 1023.5 hPa | 0 mm | - | - | - |
| 1777498530 | 18.33° C | 35% | 1023.7 hPa | 0 mm | - | - | - |
| 1777497925 | 18.33° C | 36% | 1023.7 hPa | 0 mm | - | - | - |
| 1777496717 | 18.33° C | 34% | 1023.5 hPa | 0 mm | - | - | - |
| 1777496172 | 18.89° C | 34% | 1023.6 hPa | 0 mm | - | - | - |
| 1777493746 | 18.33° C | 36% | 1023.5 hPa | 0 mm | - | - | - |
| 1777491916 | 17.78° C | 36% | 1023.5 hPa | 0 mm | - | - | - |
| 1777490126 | 17.78° C | 36% | 1023.5 hPa | 0 mm | - | - | - |
| 1777486545 | 16.67° C | 37% | 1023.7 hPa | 0 mm | - | - | - |
| 1777484716 | 16.11° C | 36% | 1023.9 hPa | 0 mm | - | - | - |
| 1777479319 | 12.22° C | 49% | 1024.1 hPa | 0 mm | - | - | - |
| 1777476956 | 12.22° C | 51% | 1024.1 hPa | 0 mm | - | - | - |
| 1777474540 | 9.44° C | 57% | 1024.2 hPa | 0 mm | - | - | - |
| 1777468528 | 3.89° C | 73% | 1023.5 hPa | 0 mm | - | - | - |
| 1777467336 | 2.78° C | 76% | 1023.5 hPa | 0 mm | - | - | - |
| 1777465551 | 1.67° C | 79% | 1023.3 hPa | 0 mm | - | - | - |
| 1777464316 | 1.11° C | 80% | 1023.3 hPa | 0 mm | - | - | - |
| 1777460717 | 1.11° C | 79% | 1023 hPa | 0 mm | - | - | - |
| 1777455353 | 1.67° C | 77% | 1022.9 hPa | 0 mm | - | - | - |
| 1777445718 | 2.22° C | 71% | 1022.5 hPa | 0 mm | - | - | - |
| 1777443321 | 2.78° C | 68% | 1022.2 hPa | 0 mm | - | - | - |
| 1777442716 | 2.78° C | 66% | 1022.2 hPa | 0 mm | - | - | - |
| 1777439134 | 4.44° C | 60% | 1021.8 hPa | 0 mm | - | - | - |
| 1777433159 | 7.22° C | 51% | 1021 hPa | 0 mm | - | - | - |
| 1777432519 | 7.78° C | 49% | 1021 hPa | 0 mm | - | - | - |
* Rain latest hour (hover to see other rain measurements)
** Current wind speed in m/s (hover to see current wind gust speed)